sensor_id;sensor_type;location;lat;lon;timestamp;temperature;humidity
66962;HTU21D;53897;51.126;5.868;2023-02-24T00:02:23;22.17;46.09
66962;HTU21D;53897;51.126;5.868;2023-02-24T00:04:49;22.16;46.04
66962;HTU21D;53897;51.126;5.868;2023-02-24T00:07:17;22.13;46.02
66962;HTU21D;53897;51.126;5.868;2023-02-24T00:09:43;22.12;46.00
66962;HTU21D;53897;51.126;5.868;2023-02-24T00:12:12;22.11;46.00
66962;HTU21D;53897;51.126;5.868;2023-02-24T00:14:41;22.08;45.99
66962;HTU21D;53897;51.126;5.868;2023-02-24T00:17:08;22.06;45.97
66962;HTU21D;53897;51.126;5.868;2023-02-24T00:19:35;22.07;45.97
66962;HTU21D;53897;51.126;5.868;2023-02-24T00:22:03;22.04;45.93
66962;HTU21D;53897;51.126;5.868;2023-02-24T00:24:30;22.04;45.90
66962;HTU21D;53897;51.126;5.868;2023-02-24T00:26:58;22.03;45.87
66962;HTU21D;53897;51.126;5.868;2023-02-24T00:29:25;21.98;45.87
66962;HTU21D;53897;51.126;5.868;2023-02-24T00:31:54;21.98;45.86
66962;HTU21D;53897;51.126;5.868;2023-02-24T00:34:25;21.98;45.83
66962;HTU21D;53897;51.126;5.868;2023-02-24T00:36:51;21.97;45.83
66962;HTU21D;53897;51.126;5.868;2023-02-24T00:39:16;21.94;45.82
66962;HTU21D;53897;51.126;5.868;2023-02-24T00:41:43;21.92;45.79
66962;HTU21D;53897;51.126;5.868;2023-02-24T00:44:12;21.91;45.78
66962;HTU21D;53897;51.126;5.868;2023-02-24T00:46:42;21.91;45.77
66962;HTU21D;53897;51.126;5.868;2023-02-24T00:49:17;21.89;45.76
66962;HTU21D;53897;51.126;5.868;2023-02-24T00:51:47;21.88;45.76
66962;HTU21D;53897;51.126;5.868;2023-02-24T00:54:15;21.85;45.78
66962;HTU21D;53897;51.126;5.868;2023-02-24T00:56:43;21.84;45.80
66962;HTU21D;53897;51.126;5.868;2023-02-24T00:59:11;21.82;45.80
66962;HTU21D;53897;51.126;5.868;2023-02-24T01:01:38;21.81;45.79
66962;HTU21D;53897;51.126;5.868;2023-02-24T01:04:07;21.80;45.80
66962;HTU21D;53897;51.126;5.868;2023-02-24T01:06:38;21.79;45.78
66962;HTU21D;53897;51.126;5.868;2023-02-24T01:09:06;21.77;45.76
66962;HTU21D;53897;51.126;5.868;2023-02-24T01:11:34;21.77;45.73
66962;HTU21D;53897;51.126;5.868;2023-02-24T01:14:22;21.75;45.72
66962;HTU21D;53897;51.126;5.868;2023-02-24T01:16:49;21.74;45.70
66962;HTU21D;53897;51.126;5.868;2023-02-24T01:19:25;21.72;45.67
66962;HTU21D;53897;51.126;5.868;2023-02-24T01:21:58;21.69;45.67
66962;HTU21D;53897;51.126;5.868;2023-02-24T01:24:26;21.68;45.64
66962;HTU21D;53897;51.126;5.868;2023-02-24T01:26:53;21.67;45.62
66962;HTU21D;53897;51.126;5.868;2023-02-24T01:29:20;21.67;45.60
66962;HTU21D;53897;51.126;5.868;2023-02-24T01:31:47;21.65;45.57
66962;HTU21D;53897;51.126;5.868;2023-02-24T01:34:17;21.65;45.54
66962;HTU21D;53897;51.126;5.868;2023-02-24T01:36:44;21.63;45.57
66962;HTU21D;53897;51.126;5.868;2023-02-24T01:39:12;21.62;45.53
66962;HTU21D;53897;51.126;5.868;2023-02-24T01:41:41;21.61;45.50
66962;HTU21D;53897;51.126;5.868;2023-02-24T01:46:41;21.60;45.47
66962;HTU21D;53897;51.126;5.868;2023-02-24T01:51:54;21.57;45.45
66962;HTU21D;53897;51.126;5.868;2023-02-24T01:54:33;21.54;45.45
66962;HTU21D;53897;51.126;5.868;2023-02-24T01:57:00;21.53;45.40
66962;HTU21D;53897;51.126;5.868;2023-02-24T01:59:32;21.52;45.38
66962;HTU21D;53897;51.126;5.868;2023-02-24T02:02:03;21.52;45.34
66962;HTU21D;53897;51.126;5.868;2023-02-24T02:04:46;21.51;45.30
66962;HTU21D;53897;51.126;5.868;2023-02-24T02:07:17;21.48;45.29
66962;HTU21D;53897;51.126;5.868;2023-02-24T02:09:46;21.48;45.29
66962;HTU21D;53897;51.126;5.868;2023-02-24T02:12:13;21.48;45.26
66962;HTU21D;53897;51.126;5.868;2023-02-24T02:14:46;21.47;45.25
66962;HTU21D;53897;51.126;5.868;2023-02-24T02:17:35;21.45;45.23
66962;HTU21D;53897;51.126;5.868;2023-02-24T02:20:23;21.43;45.20
66962;HTU21D;53897;51.126;5.868;2023-02-24T02:23:15;21.43;45.19
66962;HTU21D;53897;51.126;5.868;2023-02-24T02:26:20;21.40;45.18
66962;HTU21D;53897;51.126;5.868;2023-02-24T02:34:58;21.36;45.12
66962;HTU21D;53897;51.126;5.868;2023-02-24T02:37:41;21.34;45.12
66962;HTU21D;53897;51.126;5.868;2023-02-24T02:40:14;21.34;45.10
66962;HTU21D;53897;51.126;5.868;2023-02-24T02:42:57;21.32;45.09
66962;HTU21D;53897;51.126;5.868;2023-02-24T02:45:48;21.31;45.08
66962;HTU21D;53897;51.126;5.868;2023-02-24T02:49:07;21.31;45.08
66962;HTU21D;53897;51.126;5.868;2023-02-24T02:51:09;21.30;45.09
66962;HTU21D;53897;51.126;5.868;2023-02-24T02:56:31;21.27;45.12
66962;HTU21D;53897;51.126;5.868;2023-02-24T02:58:59;21.27;45.09
66962;HTU21D;53897;51.126;5.868;2023-02-24T03:01:30;21.24;45.09
66962;HTU21D;53897;51.126;5.868;2023-02-24T03:04:05;21.23;45.10
66962;HTU21D;53897;51.126;5.868;2023-02-24T03:06:36;21.21;45.12
66962;HTU21D;53897;51.126;5.868;2023-02-24T03:09:22;21.20;45.10
66962;HTU21D;53897;51.126;5.868;2023-02-24T03:11:55;21.20;45.06
66962;HTU21D;53897;51.126;5.868;2023-02-24T03:14:36;21.19;45.04
66962;HTU21D;53897;51.126;5.868;2023-02-24T03:17:08;21.17;45.03
66962;HTU21D;53897;51.126;5.868;2023-02-24T03:19:38;21.17;45.02
66962;HTU21D;53897;51.126;5.868;2023-02-24T03:22:23;21.16;45.01
66962;HTU21D;53897;51.126;5.868;2023-02-24T03:24:52;21.16;44.98
66962;HTU21D;53897;51.126;5.868;2023-02-24T03:27:46;21.14;44.97
66962;HTU21D;53897;51.126;5.868;2023-02-24T03:30:35;21.13;44.93
66962;HTU21D;53897;51.126;5.868;2023-02-24T03:33:31;21.11;44.93
66962;HTU21D;53897;51.126;5.868;2023-02-24T03:35:56;21.10;44.96
66962;HTU21D;53897;51.126;5.868;2023-02-24T03:38:30;21.09;44.93
66962;HTU21D;53897;51.126;5.868;2023-02-24T03:40:56;21.08;44.92
66962;HTU21D;53897;51.126;5.868;2023-02-24T03:43:31;21.09;44.87
66962;HTU21D;53897;51.126;5.868;2023-02-24T03:46:04;21.07;44.83
66962;HTU21D;53897;51.126;5.868;2023-02-24T03:48:33;21.05;44.83
66962;HTU21D;53897;51.126;5.868;2023-02-24T03:51:03;21.03;44.80
66962;HTU21D;53897;51.126;5.868;2023-02-24T03:53:56;21.03;44.78
66962;HTU21D;53897;51.126;5.868;2023-02-24T03:59:35;21.02;44.74
66962;HTU21D;53897;51.126;5.868;2023-02-24T04:02:17;21.02;44.71
66962;HTU21D;53897;51.126;5.868;2023-02-24T04:07:58;20.99;44.70
66962;HTU21D;53897;51.126;5.868;2023-02-24T04:10:32;20.98;44.67
66962;HTU21D;53897;51.126;5.868;2023-02-24T04:13:32;20.96;44.66
66962;HTU21D;53897;51.126;5.868;2023-02-24T04:16:19;20.95;44.64
66962;HTU21D;53897;51.126;5.868;2023-02-24T04:18:56;20.94;44.64
66962;HTU21D;53897;51.126;5.868;2023-02-24T04:21:26;20.93;44.65
66962;HTU21D;53897;51.126;5.868;2023-02-24T04:23:54;20.92;44.62
66962;HTU21D;53897;51.126;5.868;2023-02-24T04:26:23;20.91;44.62
66962;HTU21D;53897;51.126;5.868;2023-02-24T04:28:54;20.90;44.61
66962;HTU21D;53897;51.126;5.868;2023-02-24T04:31:24;20.89;44.61
66962;HTU21D;53897;51.126;5.868;2023-02-24T04:33:51;20.89;44.60
66962;HTU21D;53897;51.126;5.868;2023-02-24T04:36:21;20.87;44.56
66962;HTU21D;53897;51.126;5.868;2023-02-24T04:38:47;20.87;44.56
66962;HTU21D;53897;51.126;5.868;2023-02-24T04:41:14;20.86;44.54
66962;HTU21D;53897;51.126;5.868;2023-02-24T04:43:49;20.86;44.53
66962;HTU21D;53897;51.126;5.868;2023-02-24T04:46:16;20.85;44.54
66962;HTU21D;53897;51.126;5.868;2023-02-24T04:48:42;20.84;44.51
66962;HTU21D;53897;51.126;5.868;2023-02-24T04:51:08;20.85;44.45
66962;HTU21D;53897;51.126;5.868;2023-02-24T04:53:34;20.81;44.48
66962;HTU21D;53897;51.126;5.868;2023-02-24T04:56:02;20.81;44.48
66962;HTU21D;53897;51.126;5.868;2023-02-24T04:58:36;20.81;44.46
66962;HTU21D;53897;51.126;5.868;2023-02-24T05:01:06;20.79;44.48
66962;HTU21D;53897;51.126;5.868;2023-02-24T05:03:35;20.78;44.46
66962;HTU21D;53897;51.126;5.868;2023-02-24T05:06:01;20.78;44.46
66962;HTU21D;53897;51.126;5.868;2023-02-24T05:08:29;20.76;44.45
66962;HTU21D;53897;51.126;5.868;2023-02-24T05:10:55;20.78;44.46
66962;HTU21D;53897;51.126;5.868;2023-02-24T05:13:28;20.75;44.45
66962;HTU21D;53897;51.126;5.868;2023-02-24T05:15:59;20.75;44.43
66962;HTU21D;53897;51.126;5.868;2023-02-24T05:18:27;20.75;44.43
66962;HTU21D;53897;51.126;5.868;2023-02-24T05:21:04;20.74;44.42
66962;HTU21D;53897;51.126;5.868;2023-02-24T05:23:51;20.72;44.41
66962;HTU21D;53897;51.126;5.868;2023-02-24T05:26:19;20.72;44.40
66962;HTU21D;53897;51.126;5.868;2023-02-24T05:28:48;20.71;44.41
66962;HTU21D;53897;51.126;5.868;2023-02-24T05:31:20;20.70;44.38
66962;HTU21D;53897;51.126;5.868;2023-02-24T05:33:50;20.70;44.38
66962;HTU21D;53897;51.126;5.868;2023-02-24T05:36:20;20.69;44.38
66962;HTU21D;53897;51.126;5.868;2023-02-24T05:38:48;20.68;44.36
66962;HTU21D;53897;51.126;5.868;2023-02-24T05:41:16;20.65;44.36
66962;HTU21D;53897;51.126;5.868;2023-02-24T05:43:48;20.66;44.35
66962;HTU21D;53897;51.126;5.868;2023-02-24T05:46:23;20.65;44.34
66962;HTU21D;53897;51.126;5.868;2023-02-24T05:49:03;20.65;44.32
66962;HTU21D;53897;51.126;5.868;2023-02-24T05:51:35;20.64;44.31
66962;HTU21D;53897;51.126;5.868;2023-02-24T05:54:06;20.63;44.32
66962;HTU21D;53897;51.126;5.868;2023-02-24T05:56:35;20.61;44.31
66962;HTU21D;53897;51.126;5.868;2023-02-24T05:59:04;20.61;44.32
66962;HTU21D;53897;51.126;5.868;2023-02-24T06:01:34;20.60;44.30
66962;HTU21D;53897;51.126;5.868;2023-02-24T06:04:03;20.60;44.30
66962;HTU21D;53897;51.126;5.868;2023-02-24T06:06:35;20.59;44.28
66962;HTU21D;53897;51.126;5.868;2023-02-24T06:09:04;20.60;44.26
66962;HTU21D;53897;51.126;5.868;2023-02-24T06:11:33;20.57;44.28
66962;HTU21D;53897;51.126;5.868;2023-02-24T06:13:59;20.57;44.28
66962;HTU21D;53897;51.126;5.868;2023-02-24T06:16:25;20.57;44.32
66962;HTU21D;53897;51.126;5.868;2023-02-24T06:18:51;20.58;44.27
66962;HTU21D;53897;51.126;5.868;2023-02-24T06:21:17;20.59;44.44
66962;HTU21D;53897;51.126;5.868;2023-02-24T06:23:43;20.63;44.65
66962;HTU21D;53897;51.126;5.868;2023-02-24T06:26:10;20.68;44.72
66962;HTU21D;53897;51.126;5.868;2023-02-24T06:28:47;20.72;44.87
66962;HTU21D;53897;51.126;5.868;2023-02-24T06:31:14;20.78;44.99
66962;HTU21D;53897;51.126;5.868;2023-02-24T06:33:40;20.83;45.09
66962;HTU21D;53897;51.126;5.868;2023-02-24T06:36:07;20.88;45.14
66962;HTU21D;53897;51.126;5.868;2023-02-24T06:38:34;20.94;45.19
66962;HTU21D;53897;51.126;5.868;2023-02-24T06:41:01;21.01;45.19
66962;HTU21D;53897;51.126;5.868;2023-02-24T06:43:31;21.06;45.16
66962;HTU21D;53897;51.126;5.868;2023-02-24T06:45:57;21.10;45.15
66962;HTU21D;53897;51.126;5.868;2023-02-24T06:48:23;21.16;45.14
66962;HTU21D;53897;51.126;5.868;2023-02-24T06:50:50;21.21;45.12
66962;HTU21D;53897;51.126;5.868;2023-02-24T06:53:16;21.25;45.04
66962;HTU21D;53897;51.126;5.868;2023-02-24T06:55:46;21.30;45.05
66962;HTU21D;53897;51.126;5.868;2023-02-24T06:58:19;21.34;45.03
66962;HTU21D;53897;51.126;5.868;2023-02-24T07:00:45;21.38;45.03
66962;HTU21D;53897;51.126;5.868;2023-02-24T07:03:25;21.43;44.88
66962;HTU21D;53897;51.126;5.868;2023-02-24T07:06:08;21.45;44.86
66962;HTU21D;53897;51.126;5.868;2023-02-24T07:08:50;21.49;44.74
66962;HTU21D;53897;51.126;5.868;2023-02-24T07:11:16;21.49;44.74
66962;HTU21D;53897;51.126;5.868;2023-02-24T07:13:44;21.53;44.70
66962;HTU21D;53897;51.126;5.868;2023-02-24T07:16:17;21.57;44.62
66962;HTU21D;53897;51.126;5.868;2023-02-24T07:18:43;21.58;44.58
66962;HTU21D;53897;51.126;5.868;2023-02-24T07:21:15;21.61;44.54
66962;HTU21D;53897;51.126;5.868;2023-02-24T07:23:44;21.61;44.49
66962;HTU21D;53897;51.126;5.868;2023-02-24T07:26:13;21.63;44.43
66962;HTU21D;53897;51.126;5.868;2023-02-24T07:28:41;21.64;44.31
66962;HTU21D;53897;51.126;5.868;2023-02-24T07:31:13;21.64;44.22
66962;HTU21D;53897;51.126;5.868;2023-02-24T07:33:39;21.64;44.21
66962;HTU21D;53897;51.126;5.868;2023-02-24T07:36:07;21.62;44.16
66962;HTU21D;53897;51.126;5.868;2023-02-24T07:38:43;21.62;44.15
66962;HTU21D;53897;51.126;5.868;2023-02-24T07:41:12;21.62;44.19
66962;HTU21D;53897;51.126;5.868;2023-02-24T07:43:41;21.62;44.15
66962;HTU21D;53897;51.126;5.868;2023-02-24T07:46:14;21.62;43.98
66962;HTU21D;53897;51.126;5.868;2023-02-24T07:48:41;21.62;43.97
66962;HTU21D;53897;51.126;5.868;2023-02-24T07:51:12;21.62;44.00
66962;HTU21D;53897;51.126;5.868;2023-02-24T07:53:40;21.62;44.03
66962;HTU21D;53897;51.126;5.868;2023-02-24T07:56:11;21.63;44.02
66962;HTU21D;53897;51.126;5.868;2023-02-24T07:58:43;21.64;44.01
66962;HTU21D;53897;51.126;5.868;2023-02-24T08:01:10;21.65;43.97
66962;HTU21D;53897;51.126;5.868;2023-02-24T08:03:50;21.65;43.92
66962;HTU21D;53897;51.126;5.868;2023-02-24T08:06:22;21.65;43.96
66962;HTU21D;53897;51.126;5.868;2023-02-24T08:11:59;21.68;43.93
66962;HTU21D;53897;51.126;5.868;2023-02-24T08:14:28;21.70;43.95
66962;HTU21D;53897;51.126;5.868;2023-02-24T08:17:01;21.74;43.96
66962;HTU21D;53897;51.126;5.868;2023-02-24T08:19:31;21.76;43.95
66962;HTU21D;53897;51.126;5.868;2023-02-24T08:21:59;21.80;43.93
66962;HTU21D;53897;51.126;5.868;2023-02-24T08:24:58;21.83;43.91
66962;HTU21D;53897;51.126;5.868;2023-02-24T08:27:32;21.88;43.86
66962;HTU21D;53897;51.126;5.868;2023-02-24T08:29:59;21.90;43.82
66962;HTU21D;53897;51.126;5.868;2023-02-24T08:35:18;21.96;43.70
66962;HTU21D;53897;51.126;5.868;2023-02-24T08:37:46;21.99;43.65
66962;HTU21D;53897;51.126;5.868;2023-02-24T08:40:22;22.02;43.57
66962;HTU21D;53897;51.126;5.868;2023-02-24T08:43:09;22.04;43.48
66962;HTU21D;53897;51.126;5.868;2023-02-24T08:45:52;22.06;43.41
66962;HTU21D;53897;51.126;5.868;2023-02-24T08:48:27;22.08;43.35
66962;HTU21D;53897;51.126;5.868;2023-02-24T08:51:10;22.09;43.27
66962;HTU21D;53897;51.126;5.868;2023-02-24T08:53:38;22.10;42.74
66962;HTU21D;53897;51.126;5.868;2023-02-24T08:56:09;22.10;42.68
66962;HTU21D;53897;51.126;5.868;2023-02-24T08:58:38;22.10;42.75
66962;HTU21D;53897;51.126;5.868;2023-02-24T09:01:11;22.10;42.82
66962;HTU21D;53897;51.126;5.868;2023-02-24T09:03:48;22.11;42.70
66962;HTU21D;53897;51.126;5.868;2023-02-24T09:06:18;22.10;42.76
66962;HTU21D;53897;51.126;5.868;2023-02-24T09:08:52;22.10;42.78
66962;HTU21D;53897;51.126;5.868;2023-02-24T09:11:39;22.11;42.77
66962;HTU21D;53897;51.126;5.868;2023-02-24T09:14:18;22.11;42.61
66962;HTU21D;53897;51.126;5.868;2023-02-24T09:16:47;22.12;42.59
66962;HTU21D;53897;51.126;5.868;2023-02-24T09:19:45;22.13;42.33
66962;HTU21D;53897;51.126;5.868;2023-02-24T09:22:16;22.13;41.95
66962;HTU21D;53897;51.126;5.868;2023-02-24T09:28:04;22.14;41.93
66962;HTU21D;53897;51.126;5.868;2023-02-24T09:30:35;22.14;42.05
66962;HTU21D;53897;51.126;5.868;2023-02-24T09:33:28;22.14;42.05
66962;HTU21D;53897;51.126;5.868;2023-02-24T09:38:40;22.16;42.12
66962;HTU21D;53897;51.126;5.868;2023-02-24T09:44:16;22.19;42.01
66962;HTU21D;53897;51.126;5.868;2023-02-24T09:46:50;22.18;42.03
66962;HTU21D;53897;51.126;5.868;2023-02-24T09:50:04;22.19;41.97
66962;HTU21D;53897;51.126;5.868;2023-02-24T09:52:16;22.18;41.95
66962;HTU21D;53897;51.126;5.868;2023-02-24T09:54:46;22.20;41.90
66962;HTU21D;53897;51.126;5.868;2023-02-24T09:57:46;22.19;41.84
66962;HTU21D;53897;51.126;5.868;2023-02-24T10:00:37;22.20;41.90
66962;HTU21D;53897;51.126;5.868;2023-02-24T10:03:17;22.21;41.89
66962;HTU21D;53897;51.126;5.868;2023-02-24T10:05:54;22.20;41.88
66962;HTU21D;53897;51.126;5.868;2023-02-24T10:08:32;22.20;41.82
66962;HTU21D;53897;51.126;5.868;2023-02-24T10:11:00;22.19;41.68
66962;HTU21D;53897;51.126;5.868;2023-02-24T10:13:36;22.20;41.71
66962;HTU21D;53897;51.126;5.868;2023-02-24T10:16:05;22.20;41.75
66962;HTU21D;53897;51.126;5.868;2023-02-24T10:18:48;22.21;41.74
66962;HTU21D;53897;51.126;5.868;2023-02-24T10:21:38;22.21;41.77
66962;HTU21D;53897;51.126;5.868;2023-02-24T10:24:49;22.22;41.81
66962;HTU21D;53897;51.126;5.868;2023-02-24T10:27:51;22.22;41.85
66962;HTU21D;53897;51.126;5.868;2023-02-24T10:30:42;22.23;41.81
66962;HTU21D;53897;51.126;5.868;2023-02-24T10:33:31;22.23;41.80
66962;HTU21D;53897;51.126;5.868;2023-02-24T10:36:08;22.23;41.75
66962;HTU21D;53897;51.126;5.868;2023-02-24T10:38:36;22.23;41.66
66962;HTU21D;53897;51.126;5.868;2023-02-24T10:41:02;22.23;41.71
66962;HTU21D;53897;51.126;5.868;2023-02-24T10:43:32;22.23;41.74
66962;HTU21D;53897;51.126;5.868;2023-02-24T10:46:20;22.23;41.70
66962;HTU21D;53897;51.126;5.868;2023-02-24T10:48:57;22.23;41.62
66962;HTU21D;53897;51.126;5.868;2023-02-24T10:51:40;22.25;41.56
66962;HTU21D;53897;51.126;5.868;2023-02-24T10:54:11;22.26;41.52
66962;HTU21D;53897;51.126;5.868;2023-02-24T10:56:56;22.27;41.52
66962;HTU21D;53897;51.126;5.868;2023-02-24T11:00:43;22.27;41.49
66962;HTU21D;53897;51.126;5.868;2023-02-24T11:02:52;22.28;41.51
66962;HTU21D;53897;51.126;5.868;2023-02-24T11:05:40;22.28;41.68
66962;HTU21D;53897;51.126;5.868;2023-02-24T11:08:26;22.29;41.74
66962;HTU21D;53897;51.126;5.868;2023-02-24T11:11:19;22.29;41.64
66962;HTU21D;53897;51.126;5.868;2023-02-24T11:13:58;22.29;41.50
66962;HTU21D;53897;51.126;5.868;2023-02-24T11:16:47;22.29;41.09
66962;HTU21D;53897;51.126;5.868;2023-02-24T11:19:43;22.27;40.94
66962;HTU21D;53897;51.126;5.868;2023-02-24T11:22:16;22.27;41.07
66962;HTU21D;53897;51.126;5.868;2023-02-24T11:24:45;22.28;41.42
66962;HTU21D;53897;51.126;5.868;2023-02-24T11:27:13;22.28;41.55
66962;HTU21D;53897;51.126;5.868;2023-02-24T11:29:47;22.29;41.71
66962;HTU21D;53897;51.126;5.868;2023-02-24T11:35:49;22.31;42.09
66962;HTU21D;53897;51.126;5.868;2023-02-24T11:41:27;22.33;42.16
66962;HTU21D;53897;51.126;5.868;2023-02-24T11:44:46;22.33;42.12
66962;HTU21D;53897;51.126;5.868;2023-02-24T11:46:58;22.33;42.07
66962;HTU21D;53897;51.126;5.868;2023-02-24T11:49:34;22.34;42.14
66962;HTU21D;53897;51.126;5.868;2023-02-24T11:52:03;22.34;41.94
66962;HTU21D;53897;51.126;5.868;2023-02-24T11:54:38;22.34;41.84
66962;HTU21D;53897;51.126;5.868;2023-02-24T11:57:15;22.33;41.66
66962;HTU21D;53897;51.126;5.868;2023-02-24T12:05:35;22.36;41.94
66962;HTU21D;53897;51.126;5.868;2023-02-24T12:08:31;22.35;41.97
66962;HTU21D;53897;51.126;5.868;2023-02-24T12:11:06;22.36;42.04
66962;HTU21D;53897;51.126;5.868;2023-02-24T12:13:45;22.36;41.97
66962;HTU21D;53897;51.126;5.868;2023-02-24T12:16:29;22.37;41.95
66962;HTU21D;53897;51.126;5.868;2023-02-24T12:19:03;22.38;41.89
66962;HTU21D;53897;51.126;5.868;2023-02-24T12:21:39;22.37;41.83
66962;HTU21D;53897;51.126;5.868;2023-02-24T12:24:13;22.38;41.90
66962;HTU21D;53897;51.126;5.868;2023-02-24T12:35:35;22.39;41.65
66962;HTU21D;53897;51.126;5.868;2023-02-24T12:41:26;22.38;41.59
66962;HTU21D;53897;51.126;5.868;2023-02-24T12:46:35;22.38;41.58
66962;HTU21D;53897;51.126;5.868;2023-02-24T12:49:21;22.36;41.57
66962;HTU21D;53897;51.126;5.868;2023-02-24T12:52:17;22.29;41.80
66962;HTU21D;53897;51.126;5.868;2023-02-24T13:00:17;22.12;42.16
66962;HTU21D;53897;51.126;5.868;2023-02-24T13:05:49;22.11;42.28
66962;HTU21D;53897;51.126;5.868;2023-02-24T13:08:29;22.07;42.28
66962;HTU21D;53897;51.126;5.868;2023-02-24T13:11:24;22.10;42.13
66962;HTU21D;53897;51.126;5.868;2023-02-24T13:14:31;22.12;41.98
66962;HTU21D;53897;51.126;5.868;2023-02-24T13:17:25;22.09;42.14
66962;HTU21D;53897;51.126;5.868;2023-02-24T13:19:53;22.07;42.19
66962;HTU21D;53897;51.126;5.868;2023-02-24T13:22:31;22.09;42.05
66962;HTU21D;53897;51.126;5.868;2023-02-24T13:27:34;22.14;41.85
66962;HTU21D;53897;51.126;5.868;2023-02-24T13:30:33;22.19;41.65
66962;HTU21D;53897;51.126;5.868;2023-02-24T13:33:23;22.20;41.49
66962;HTU21D;53897;51.126;5.868;2023-02-24T13:38:37;22.23;41.58
66962;HTU21D;53897;51.126;5.868;2023-02-24T13:41:07;22.24;41.62
66962;HTU21D;53897;51.126;5.868;2023-02-24T13:43:33;22.25;41.52
66962;HTU21D;53897;51.126;5.868;2023-02-24T13:46:02;22.25;41.33
66962;HTU21D;53897;51.126;5.868;2023-02-24T13:48:49;22.28;41.20
66962;HTU21D;53897;51.126;5.868;2023-02-24T13:59:52;22.28;41.06
66962;HTU21D;53897;51.126;5.868;2023-02-24T14:02:29;22.28;41.00
66962;HTU21D;53897;51.126;5.868;2023-02-24T14:04:58;22.29;41.05
66962;HTU21D;53897;51.126;5.868;2023-02-24T14:07:33;22.31;41.20
66962;HTU21D;53897;51.126;5.868;2023-02-24T14:10:13;22.28;41.31
66962;HTU21D;53897;51.126;5.868;2023-02-24T14:12:41;22.27;41.19
66962;HTU21D;53897;51.126;5.868;2023-02-24T14:15:14;22.29;41.08
66962;HTU21D;53897;51.126;5.868;2023-02-24T14:17:40;22.31;41.04
66962;HTU21D;53897;51.126;5.868;2023-02-24T14:20:17;22.32;41.03
66962;HTU21D;53897;51.126;5.868;2023-02-24T14:22:46;22.33;41.10
66962;HTU21D;53897;51.126;5.868;2023-02-24T14:25:14;22.34;41.13
66962;HTU21D;53897;51.126;5.868;2023-02-24T14:27:46;22.37;41.21
66962;HTU21D;53897;51.126;5.868;2023-02-24T14:30:37;22.35;41.38
66962;HTU21D;53897;51.126;5.868;2023-02-24T14:33:06;22.35;41.47
66962;HTU21D;53897;51.126;5.868;2023-02-24T14:35:36;22.37;41.36
66962;HTU21D;53897;51.126;5.868;2023-02-24T14:38:04;22.39;41.20
66962;HTU21D;53897;51.126;5.868;2023-02-24T14:40:30;22.39;41.02
66962;HTU21D;53897;51.126;5.868;2023-02-24T14:42:56;22.40;40.81
66962;HTU21D;53897;51.126;5.868;2023-02-24T14:45:25;22.40;40.71
66962;HTU21D;53897;51.126;5.868;2023-02-24T14:47:53;22.41;40.85
66962;HTU21D;53897;51.126;5.868;2023-02-24T14:50:31;22.44;40.77
66962;HTU21D;53897;51.126;5.868;2023-02-24T14:53:04;22.44;40.75
66962;HTU21D;53897;51.126;5.868;2023-02-24T14:55:36;22.42;40.69
66962;HTU21D;53897;51.126;5.868;2023-02-24T14:58:23;22.43;40.76
66962;HTU21D;53897;51.126;5.868;2023-02-24T15:04:00;22.44;40.65
66962;HTU21D;53897;51.126;5.868;2023-02-24T15:06:34;22.44;40.75
66962;HTU21D;53897;51.126;5.868;2023-02-24T15:09:16;22.46;40.85
66962;HTU21D;53897;51.126;5.868;2023-02-24T15:11:43;22.46;40.82
66962;HTU21D;53897;51.126;5.868;2023-02-24T15:14:30;22.46;40.84
66962;HTU21D;53897;51.126;5.868;2023-02-24T15:17:01;22.43;40.94
66962;HTU21D;53897;51.126;5.868;2023-02-24T15:19:34;22.46;41.07
66962;HTU21D;53897;51.126;5.868;2023-02-24T15:22:48;22.47;41.15
66962;HTU21D;53897;51.126;5.868;2023-02-24T15:24:53;22.49;41.26
66962;HTU21D;53897;51.126;5.868;2023-02-24T15:27:24;22.48;41.82
66962;HTU21D;53897;51.126;5.868;2023-02-24T15:30:02;22.46;42.27
66962;HTU21D;53897;51.126;5.868;2023-02-24T15:32:33;22.47;42.11
66962;HTU21D;53897;51.126;5.868;2023-02-24T15:34:59;22.47;41.95
66962;HTU21D;53897;51.126;5.868;2023-02-24T15:37:28;22.46;41.92
66962;HTU21D;53897;51.126;5.868;2023-02-24T15:40:19;22.48;42.04
66962;HTU21D;53897;51.126;5.868;2023-02-24T15:42:54;22.48;42.04
66962;HTU21D;53897;51.126;5.868;2023-02-24T15:45:35;22.48;41.96
66962;HTU21D;53897;51.126;5.868;2023-02-24T15:48:15;22.47;41.87
66962;HTU21D;53897;51.126;5.868;2023-02-24T15:50:43;22.49;41.73
66962;HTU21D;53897;51.126;5.868;2023-02-24T15:53:09;22.48;41.81
66962;HTU21D;53897;51.126;5.868;2023-02-24T15:55:40;22.48;41.91
66962;HTU21D;53897;51.126;5.868;2023-02-24T15:58:14;22.47;41.40
66962;HTU21D;53897;51.126;5.868;2023-02-24T16:00:40;22.43;41.57
66962;HTU21D;53897;51.126;5.868;2023-02-24T16:03:07;22.42;41.28
66962;HTU21D;53897;51.126;5.868;2023-02-24T16:05:33;22.40;41.16
66962;HTU21D;53897;51.126;5.868;2023-02-24T16:07:59;22.39;40.96
66962;HTU21D;53897;51.126;5.868;2023-02-24T16:10:28;22.39;40.85
66962;HTU21D;53897;51.126;5.868;2023-02-24T16:12:59;22.40;40.78
66962;HTU21D;53897;51.126;5.868;2023-02-24T16:15:29;22.38;40.66
66962;HTU21D;53897;51.126;5.868;2023-02-24T16:17:56;22.38;40.59
66962;HTU21D;53897;51.126;5.868;2023-02-24T16:20:24;22.36;40.59
66962;HTU21D;53897;51.126;5.868;2023-02-24T16:23:04;22.36;40.65
66962;HTU21D;53897;51.126;5.868;2023-02-24T16:25:37;22.37;40.83
66962;HTU21D;53897;51.126;5.868;2023-02-24T16:28:04;22.37;41.02
66962;HTU21D;53897;51.126;5.868;2023-02-24T16:30:30;22.37;41.23
66962;HTU21D;53897;51.126;5.868;2023-02-24T16:33:00;22.37;41.49
66962;HTU21D;53897;51.126;5.868;2023-02-24T16:35:27;22.35;41.64
66962;HTU21D;53897;51.126;5.868;2023-02-24T16:37:53;22.35;41.99
66962;HTU21D;53897;51.126;5.868;2023-02-24T16:40:27;22.35;42.42
66962;HTU21D;53897;51.126;5.868;2023-02-24T16:42:55;22.36;43.02
66962;HTU21D;53897;51.126;5.868;2023-02-24T16:45:26;22.37;43.27
66962;HTU21D;53897;51.126;5.868;2023-02-24T16:47:55;22.39;43.36
66962;HTU21D;53897;51.126;5.868;2023-02-24T16:50:30;22.39;43.56
66962;HTU21D;53897;51.126;5.868;2023-02-24T16:52:57;22.41;43.61
66962;HTU21D;53897;51.126;5.868;2023-02-24T16:55:23;22.41;43.58
66962;HTU21D;53897;51.126;5.868;2023-02-24T16:57:49;22.42;43.54
66962;HTU21D;53897;51.126;5.868;2023-02-24T17:00:16;22.43;43.55
66962;HTU21D;53897;51.126;5.868;2023-02-24T17:02:44;22.46;43.57
66962;HTU21D;53897;51.126;5.868;2023-02-24T17:05:16;22.46;43.57
66962;HTU21D;53897;51.126;5.868;2023-02-24T17:07:45;22.46;43.54
66962;HTU21D;53897;51.126;5.868;2023-02-24T17:10:11;22.47;43.52
66962;HTU21D;53897;51.126;5.868;2023-02-24T17:12:37;22.47;43.51
66962;HTU21D;53897;51.126;5.868;2023-02-24T17:15:03;22.47;43.32
66962;HTU21D;53897;51.126;5.868;2023-02-24T17:17:29;22.46;43.23
66962;HTU21D;53897;51.126;5.868;2023-02-24T17:19:55;22.47;43.38
66962;HTU21D;53897;51.126;5.868;2023-02-24T17:22:21;22.48;43.60
66962;HTU21D;53897;51.126;5.868;2023-02-24T17:24:48;22.48;43.78